ヘウノラ国際空港の過去48時間の天気

ヘウノラ国際空港 (Hewanorra International Airport)

現在時刻: 11/30 16:58 AST (11/30 20:58 UTC) 以下の時間は現地時間です。

過去48時間のMETAR気象情報
時間 風向 風速(m/s) 視程 気温(℃) 湿度(%) 気圧(hPa) 天気現象
30 16:00 東北東 7 10km以上 29 79 1012 弱いしゅう雨
TLPL 302000Z 07013KT 9999 -SHRA BKN024 29/25 Q1012 NOSIG